Aérodrome :
LOGIN :

S'inscrire | Disclaimer

   EN    FR    IT 

 










Légende :    VFR   VFR Marginal   IFR   IFR Intensif   IFR Très Intensif
Visi : 
Plafond : 
>= 8 km
>= 3000ft
5 à 8 km
1000 à 3000 ft
1500m à 5 km
500 à 1000 ft
800 à 1500m
200 à 500 ft
< 800m
< 200 ft
Symboles :   Orages  Brouillard  Fortes neiges  Fortes précipitations  Vent > 20 kt
SIGMETs :   Divers  Orages  Givrage  Turbulence  Onde Orograph.  Cendres Volcan.






- Altitude de l'aérodrome : 5600 ft
- Code IATA : SMV


LSZS - Samedan

DERNIER METAR :
  • 271420Z 22014KT 3800 -SN SCT017 OVC030 M05/M11 Q1001 RMK P TL180

METARs EXPIRÉS :
  • 271350Z 21011KT 9999 -SN OVC031 M04/M12 Q1002 RMK O TL180
  • 271320Z 21012KT 9999 OVC044 M04/M13 Q1002 RMK N TL180
  • 271250Z 19015KT 150V220 9999 OVC044 M04/M13 Q1002 RMK M TL180
  • 271220Z 20015KT 150V220 9999 BKN061 M04/M13 Q1003 RMK L TL180
  • 271150Z 20018KT 9999 BKN050 M04/M14 Q1004 RMK K TL180

TAF TAF LSZS
Valide du 27 à 15h jusqu'au 28 à 00h UTC


271425Z 2715/2724 21013G25KT 3500 -SN SCT017 OVC030 TXM03/2716Z
TEMPO 2721/2724 0800 SN VV003
ATIS : +41 81 834 93 24



MET'MAP, la Météo Aéronautique d'un coup d'oeil ! - Copyright ORBIFLY Décembre 2007 - Disclaimer

ORBIFLY MET'MAP TEAM :

Programmation & Développement : Alexandra Zaïnal
Sur une idée originale de : Baudouin d'Aumeries
Assistance à la programmation : Marc-Olivier Méhu
Soutien technique & logistique : Manuel Goepfert

Contact : metmap@orbifly.com




SOURCES & CREDITS :

   NOAA